sensor_id;sensor_type;location;lat;lon;timestamp;pressure;altitude;pressure_sealevel;temperature;humidity
80837;BME280;70251;60.008;30.404;2023-06-22T00:01:47;100806.03;;;24.07;43.42
80837;BME280;70251;60.008;30.404;2023-06-22T00:04:12;100800.41;;;24.02;43.52
80837;BME280;70251;60.008;30.404;2023-06-22T00:06:38;100790.16;;;23.98;43.55
80837;BME280;70251;60.008;30.404;2023-06-22T00:09:05;100799.34;;;23.97;44.05
80837;BME280;70251;60.008;30.404;2023-06-22T00:11:33;100789.97;;;23.92;44.04
80837;BME280;70251;60.008;30.404;2023-06-22T00:13:59;100787.69;;;23.83;44.04
80837;BME280;70251;60.008;30.404;2023-06-22T00:16:25;100785.66;;;23.78;44.30
80837;BME280;70251;60.008;30.404;2023-06-22T00:18:50;100781.91;;;23.73;44.46
80837;BME280;70251;60.008;30.404;2023-06-22T00:21:16;100777.28;;;23.73;44.48
80837;BME280;70251;60.008;30.404;2023-06-22T00:23:42;100778.56;;;23.71;44.35
80837;BME280;70251;60.008;30.404;2023-06-22T00:26:08;100782.34;;;23.70;44.51
80837;BME280;70251;60.008;30.404;2023-06-22T00:28:34;100772.25;;;23.70;44.44
80837;BME280;70251;60.008;30.404;2023-06-22T00:30:59;100776.47;;;23.66;44.76
80837;BME280;70251;60.008;30.404;2023-06-22T00:33:26;100764.78;;;23.66;44.77
80837;BME280;70251;60.008;30.404;2023-06-22T00:35:52;100768.16;;;23.61;45.05
80837;BME280;70251;60.008;30.404;2023-06-22T00:38:19;100766.69;;;23.59;45.03
80837;BME280;70251;60.008;30.404;2023-06-22T00:40:45;100756.22;;;23.56;45.10
80837;BME280;70251;60.008;30.404;2023-06-22T00:43:10;100761.25;;;23.59;44.82
80837;BME280;70251;60.008;30.404;2023-06-22T00:45:36;100749.72;;;23.57;45.18
80837;BME280;70251;60.008;30.404;2023-06-22T00:48:02;100745.53;;;23.54;45.00
80837;BME280;70251;60.008;30.404;2023-06-22T00:52:56;100747.00;;;23.57;45.02
80837;BME280;70251;60.008;30.404;2023-06-22T00:55:24;100741.31;;;23.58;45.19
80837;BME280;70251;60.008;30.404;2023-06-22T00:57:52;100739.19;;;23.67;45.28
80837;BME280;70251;60.008;30.404;2023-06-22T01:00:25;100738.72;;;23.76;45.43
80837;BME280;70251;60.008;30.404;2023-06-22T01:02:52;100750.09;;;23.91;44.66
80837;BME280;70251;60.008;30.404;2023-06-22T01:05:21;100741.69;;;24.00;44.67
80837;BME280;70251;60.008;30.404;2023-06-22T01:13:25;100744.81;;;24.28;44.28
80837;BME280;70251;60.008;30.404;2023-06-22T01:16:00;100741.66;;;24.31;44.17
80837;BME280;70251;60.008;30.404;2023-06-22T01:18:28;100745.84;;;24.33;44.07
80837;BME280;70251;60.008;30.404;2023-06-22T01:20:56;100739.09;;;24.36;44.02
80837;BME280;70251;60.008;30.404;2023-06-22T01:23:35;100741.97;;;24.41;44.09
80837;BME280;70251;60.008;30.404;2023-06-22T01:26:08;100750.56;;;24.44;44.08
80837;BME280;70251;60.008;30.404;2023-06-22T01:28:46;100745.50;;;24.48;43.64
80837;BME280;70251;60.008;30.404;2023-06-22T01:31:15;100737.69;;;24.51;43.75
80837;BME280;70251;60.008;30.404;2023-06-22T01:33:44;100745.06;;;24.51;43.58
80837;BME280;70251;60.008;30.404;2023-06-22T01:36:10;100736.63;;;24.52;43.73
80837;BME280;70251;60.008;30.404;2023-06-22T01:38:37;100725.97;;;24.51;43.65
80837;BME280;70251;60.008;30.404;2023-06-22T01:41:04;100733.31;;;24.50;43.71
80837;BME280;70251;60.008;30.404;2023-06-22T01:43:30;100731.19;;;24.52;43.59
80837;BME280;70251;60.008;30.404;2023-06-22T01:45:56;100726.41;;;24.48;43.90
80837;BME280;70251;60.008;30.404;2023-06-22T01:48:23;100735.84;;;24.45;43.87
80837;BME280;70251;60.008;30.404;2023-06-22T01:50:49;100738.34;;;24.47;43.76
80837;BME280;70251;60.008;30.404;2023-06-22T01:53:14;100730.81;;;24.49;43.59
80837;BME280;70251;60.008;30.404;2023-06-22T01:55:40;100733.31;;;24.50;44.09
80837;BME280;70251;60.008;30.404;2023-06-22T01:58:06;100729.72;;;24.50;43.67
80837;BME280;70251;60.008;30.404;2023-06-22T02:00:34;100728.63;;;24.57;43.65
80837;BME280;70251;60.008;30.404;2023-06-22T02:05:45;100721.19;;;24.64;43.85
80837;BME280;70251;60.008;30.404;2023-06-22T02:08:17;100727.03;;;24.68;43.54
80837;BME280;70251;60.008;30.404;2023-06-22T02:10:47;100720.94;;;24.66;43.84
80837;BME280;70251;60.008;30.404;2023-06-22T02:13:14;100723.84;;;24.71;43.77
80837;BME280;70251;60.008;30.404;2023-06-22T02:15:41;100724.44;;;24.73;43.92
80837;BME280;70251;60.008;30.404;2023-06-22T02:18:07;100712.44;;;24.81;43.89
80837;BME280;70251;60.008;30.404;2023-06-22T02:20:53;100719.31;;;24.83;43.76
80837;BME280;70251;60.008;30.404;2023-06-22T02:23:19;100709.03;;;24.85;43.56
80837;BME280;70251;60.008;30.404;2023-06-22T02:25:45;100710.59;;;24.75;43.69
80837;BME280;70251;60.008;30.404;2023-06-22T02:28:11;100718.22;;;24.66;44.16
80837;BME280;70251;60.008;30.404;2023-06-22T02:30:37;100703.97;;;24.64;43.91
80837;BME280;70251;60.008;30.404;2023-06-22T02:33:02;100711.09;;;24.65;44.01
80837;BME280;70251;60.008;30.404;2023-06-22T02:35:29;100710.25;;;24.64;43.96
80837;BME280;70251;60.008;30.404;2023-06-22T02:38:02;100711.00;;;24.53;44.16
80837;BME280;70251;60.008;30.404;2023-06-22T02:40:31;100702.97;;;24.40;44.31
80837;BME280;70251;60.008;30.404;2023-06-22T02:42:58;100705.78;;;24.34;44.55
80837;BME280;70251;60.008;30.404;2023-06-22T02:45:28;100704.09;;;24.33;44.33
80837;BME280;70251;60.008;30.404;2023-06-22T02:47:55;100706.53;;;24.41;44.34
80837;BME280;70251;60.008;30.404;2023-06-22T02:50:20;100704.34;;;24.49;44.34
80837;BME280;70251;60.008;30.404;2023-06-22T02:52:46;100699.28;;;24.53;44.16
80837;BME280;70251;60.008;30.404;2023-06-22T02:55:12;100703.06;;;24.52;43.93
80837;BME280;70251;60.008;30.404;2023-06-22T02:57:37;100703.53;;;24.49;43.99
80837;BME280;70251;60.008;30.404;2023-06-22T03:00:03;100713.72;;;24.53;44.06
80837;BME280;70251;60.008;30.404;2023-06-22T03:02:42;100720.63;;;24.56;43.63
80837;BME280;70251;60.008;30.404;2023-06-22T03:05:07;100730.28;;;24.58;44.22
80837;BME280;70251;60.008;30.404;2023-06-22T03:07:43;100732.41;;;24.56;44.25
80837;BME280;70251;60.008;30.404;2023-06-22T03:10:09;100733.97;;;24.46;44.46
80837;BME280;70251;60.008;30.404;2023-06-22T03:12:35;100722.28;;;24.39;44.97
80837;BME280;70251;60.008;30.404;2023-06-22T03:15:01;100714.31;;;24.37;45.28
80837;BME280;70251;60.008;30.404;2023-06-22T03:17:29;100723.34;;;24.38;45.25
80837;BME280;70251;60.008;30.404;2023-06-22T03:19:54;100720.81;;;24.36;45.56
80837;BME280;70251;60.008;30.404;2023-06-22T03:22:20;100727.97;;;24.37;45.53
80837;BME280;70251;60.008;30.404;2023-06-22T03:24:45;100717.28;;;24.36;45.49
80837;BME280;70251;60.008;30.404;2023-06-22T03:27:11;100722.13;;;24.34;45.47
80837;BME280;70251;60.008;30.404;2023-06-22T03:29:36;100719.84;;;24.31;45.53
80837;BME280;70251;60.008;30.404;2023-06-22T03:32:02;100720.91;;;24.30;45.75
80837;BME280;70251;60.008;30.404;2023-06-22T03:34:30;100728.88;;;24.31;45.53
80837;BME280;70251;60.008;30.404;2023-06-22T03:36:58;100717.28;;;24.36;45.92
80837;BME280;70251;60.008;30.404;2023-06-22T03:39:24;100706.53;;;24.41;45.81
80837;BME280;70251;60.008;30.404;2023-06-22T03:41:50;100711.78;;;24.42;45.93
80837;BME280;70251;60.008;30.404;2023-06-22T03:44:15;100714.69;;;24.41;45.96
80837;BME280;70251;60.008;30.404;2023-06-22T03:46:41;100700.91;;;24.36;45.93
80837;BME280;70251;60.008;30.404;2023-06-22T03:49:06;100716.81;;;24.39;46.00
80837;BME280;70251;60.008;30.404;2023-06-22T03:51:32;100716.53;;;24.47;45.84
80837;BME280;70251;60.008;30.404;2023-06-22T03:53:58;100711.59;;;24.55;45.58
80837;BME280;70251;60.008;30.404;2023-06-22T03:56:23;100709.53;;;24.57;45.26
80837;BME280;70251;60.008;30.404;2023-06-22T03:58:49;100702.75;;;24.60;45.65
80837;BME280;70251;60.008;30.404;2023-06-22T04:01:15;100695.19;;;24.62;45.54
80837;BME280;70251;60.008;30.404;2023-06-22T04:03:42;100692.00;;;24.65;45.65
80837;BME280;70251;60.008;30.404;2023-06-22T04:06:08;100691.78;;;24.66;45.19
80837;BME280;70251;60.008;30.404;2023-06-22T04:08:35;100685.63;;;24.71;45.39
80837;BME280;70251;60.008;30.404;2023-06-22T04:11:01;100686.88;;;24.75;45.47
80837;BME280;70251;60.008;30.404;2023-06-22T04:13:26;100692.25;;;24.82;45.52
80837;BME280;70251;60.008;30.404;2023-06-22T04:15:52;100681.50;;;24.87;45.49
80837;BME280;70251;60.008;30.404;2023-06-22T04:18:17;100688.53;;;24.94;45.64
80837;BME280;70251;60.008;30.404;2023-06-22T04:20:43;100683.91;;;24.95;45.71
80837;BME280;70251;60.008;30.404;2023-06-22T04:23:12;100685.13;;;24.99;45.57
80837;BME280;70251;60.008;30.404;2023-06-22T04:25:39;100675.88;;;25.00;45.40
80837;BME280;70251;60.008;30.404;2023-06-22T04:28:04;100674.81;;;25.01;45.44
80837;BME280;70251;60.008;30.404;2023-06-22T04:30:32;100681.09;;;25.01;45.71
80837;BME280;70251;60.008;30.404;2023-06-22T04:32:58;100684.19;;;25.05;45.48
80837;BME280;70251;60.008;30.404;2023-06-22T04:35:24;100682.47;;;25.10;45.50
80837;BME280;70251;60.008;30.404;2023-06-22T04:37:50;100673.94;;;25.18;45.56
80837;BME280;70251;60.008;30.404;2023-06-22T04:40:23;100672.31;;;25.29;44.95
80837;BME280;70251;60.008;30.404;2023-06-22T04:42:49;100676.84;;;25.35;45.35
80837;BME280;70251;60.008;30.404;2023-06-22T04:45:19;100678.66;;;25.41;44.90
80837;BME280;70251;60.008;30.404;2023-06-22T04:47:46;100682.41;;;25.47;45.04
80837;BME280;70251;60.008;30.404;2023-06-22T04:50:12;100679.00;;;25.51;44.90
80837;BME280;70251;60.008;30.404;2023-06-22T04:52:38;100680.53;;;25.59;44.88
80837;BME280;70251;60.008;30.404;2023-06-22T04:55:04;100662.75;;;25.68;45.23
80837;BME280;70251;60.008;30.404;2023-06-22T04:57:30;100670.50;;;25.82;44.90
80837;BME280;70251;60.008;30.404;2023-06-22T04:59:59;100651.34;;;25.94;44.66
80837;BME280;70251;60.008;30.404;2023-06-22T05:02:37;100656.00;;;26.05;45.08
80837;BME280;70251;60.008;30.404;2023-06-22T05:05:04;100657.38;;;26.14;44.84
80837;BME280;70251;60.008;30.404;2023-06-22T05:07:36;100652.97;;;26.25;45.03
80837;BME280;70251;60.008;30.404;2023-06-22T05:10:03;100653.44;;;26.33;44.68
80837;BME280;70251;60.008;30.404;2023-06-22T05:12:30;100650.56;;;26.40;44.60
80837;BME280;70251;60.008;30.404;2023-06-22T05:14:56;100643.41;;;26.39;44.33
80837;BME280;70251;60.008;30.404;2023-06-22T05:17:21;100641.44;;;26.34;44.22
80837;BME280;70251;60.008;30.404;2023-06-22T05:19:47;100631.06;;;26.36;43.91
80837;BME280;70251;60.008;30.404;2023-06-22T05:22:16;100630.56;;;26.39;44.65
80837;BME280;70251;60.008;30.404;2023-06-22T05:24:42;100628.56;;;26.46;43.75
80837;BME280;70251;60.008;30.404;2023-06-22T05:27:08;100624.72;;;26.47;43.68
80837;BME280;70251;60.008;30.404;2023-06-22T05:29:34;100620.94;;;26.48;44.36
80837;BME280;70251;60.008;30.404;2023-06-22T05:32:00;100620.09;;;26.48;44.16
80837;BME280;70251;60.008;30.404;2023-06-22T05:34:26;100619.84;;;26.49;44.00
80837;BME280;70251;60.008;30.404;2023-06-22T05:36:52;100617.09;;;26.49;43.91
80837;BME280;70251;60.008;30.404;2023-06-22T05:39:17;100619.13;;;26.54;44.25
80837;BME280;70251;60.008;30.404;2023-06-22T05:41:45;100612.72;;;26.60;44.02
80837;BME280;70251;60.008;30.404;2023-06-22T05:44:10;100612.53;;;26.66;43.83
80837;BME280;70251;60.008;30.404;2023-06-22T05:46:36;100609.50;;;26.74;43.75
80837;BME280;70251;60.008;30.404;2023-06-22T05:49:02;100604.69;;;26.81;43.31
80837;BME280;70251;60.008;30.404;2023-06-22T05:51:27;100607.06;;;26.89;42.82
80837;BME280;70251;60.008;30.404;2023-06-22T05:53:53;100602.03;;;26.98;42.68
80837;BME280;70251;60.008;30.404;2023-06-22T05:56:18;100594.13;;;27.02;42.69
80837;BME280;70251;60.008;30.404;2023-06-22T05:58:45;100594.47;;;27.05;42.56
80837;BME280;70251;60.008;30.404;2023-06-22T06:01:11;100590.75;;;27.11;42.68
80837;BME280;70251;60.008;30.404;2023-06-22T06:03:37;100590.59;;;27.18;42.61
80837;BME280;70251;60.008;30.404;2023-06-22T06:06:07;100588.53;;;27.25;42.50
80837;BME280;70251;60.008;30.404;2023-06-22T06:08:32;100582.91;;;27.31;42.32
80837;BME280;70251;60.008;30.404;2023-06-22T06:10:58;100585.53;;;27.38;42.15
80837;BME280;70251;60.008;30.404;2023-06-22T06:13:26;100574.16;;;27.46;41.67
80837;BME280;70251;60.008;30.404;2023-06-22T06:15:52;100577.47;;;27.48;41.66
80837;BME280;70251;60.008;30.404;2023-06-22T06:18:20;100570.97;;;27.54;41.46
80837;BME280;70251;60.008;30.404;2023-06-22T06:20:46;100566.34;;;27.54;41.26
80837;BME280;70251;60.008;30.404;2023-06-22T06:23:12;100563.84;;;27.53;41.43
80837;BME280;70251;60.008;30.404;2023-06-22T06:25:37;100557.53;;;27.52;41.70
80837;BME280;70251;60.008;30.404;2023-06-22T06:28:03;100557.28;;;27.54;41.71
80837;BME280;70251;60.008;30.404;2023-06-22T06:30:29;100559.44;;;27.52;40.99
80837;BME280;70251;60.008;30.404;2023-06-22T06:32:54;100557.53;;;27.52;41.21
80837;BME280;70251;60.008;30.404;2023-06-22T06:35:21;100549.88;;;27.54;41.07
80837;BME280;70251;60.008;30.404;2023-06-22T06:37:48;100540.91;;;27.59;40.64
80837;BME280;70251;60.008;30.404;2023-06-22T06:40:15;100551.16;;;27.63;40.30
80837;BME280;70251;60.008;30.404;2023-06-22T06:42:43;100545.72;;;27.68;40.53
80837;BME280;70251;60.008;30.404;2023-06-22T06:45:19;100549.78;;;27.83;40.10
80837;BME280;70251;60.008;30.404;2023-06-22T06:47:44;100546.53;;;27.86;40.22
80837;BME280;70251;60.008;30.404;2023-06-22T06:50:11;100549.34;;;27.91;40.20
80837;BME280;70251;60.008;30.404;2023-06-22T06:52:36;100533.47;;;27.93;39.51
80837;BME280;70251;60.008;30.404;2023-06-22T06:55:03;100536.06;;;27.99;39.87
80837;BME280;70251;60.008;30.404;2023-06-22T06:57:30;100531.25;;;28.06;39.18
80837;BME280;70251;60.008;30.404;2023-06-22T06:59:56;100529.38;;;28.12;39.64
80837;BME280;70251;60.008;30.404;2023-06-22T07:02:23;100532.72;;;28.14;39.76
80837;BME280;70251;60.008;30.404;2023-06-22T07:04:48;100539.47;;;28.06;38.85
80837;BME280;70251;60.008;30.404;2023-06-22T07:07:14;100540.25;;;27.85;39.37
80837;BME280;70251;60.008;30.404;2023-06-22T07:09:40;100537.66;;;27.79;38.97
80837;BME280;70251;60.008;30.404;2023-06-22T07:12:06;100541.66;;;27.71;39.40
80837;BME280;70251;60.008;30.404;2023-06-22T07:14:31;100542.31;;;27.78;39.44
80837;BME280;70251;60.008;30.404;2023-06-22T07:16:57;100545.19;;;27.88;39.41
80837;BME280;70251;60.008;30.404;2023-06-22T07:19:27;100545.38;;;27.82;38.93
80837;BME280;70251;60.008;30.404;2023-06-22T07:21:54;100542.75;;;27.70;38.92
80837;BME280;70251;60.008;30.404;2023-06-22T07:24:20;100536.69;;;27.68;39.01
80837;BME280;70251;60.008;30.404;2023-06-22T07:26:49;100533.94;;;27.68;38.78
80837;BME280;70251;60.008;30.404;2023-06-22T07:29:17;100527.13;;;27.71;38.88
80837;BME280;70251;60.008;30.404;2023-06-22T07:31:43;100531.84;;;27.75;38.75
80837;BME280;70251;60.008;30.404;2023-06-22T07:34:08;100520.94;;;27.80;38.98
80837;BME280;70251;60.008;30.404;2023-06-22T07:36:34;100520.59;;;27.93;38.67
80837;BME280;70251;60.008;30.404;2023-06-22T07:39:02;100515.34;;;28.08;38.89
80837;BME280;70251;60.008;30.404;2023-06-22T07:41:28;100518.88;;;28.25;38.57
80837;BME280;70251;60.008;30.404;2023-06-22T07:43:54;100515.19;;;28.36;38.36
80837;BME280;70251;60.008;30.404;2023-06-22T07:46:19;100514.19;;;28.48;37.92
80837;BME280;70251;60.008;30.404;2023-06-22T07:48:45;100512.09;;;28.55;38.02
80837;BME280;70251;60.008;30.404;2023-06-22T07:51:11;100503.94;;;28.60;38.00
80837;BME280;70251;60.008;30.404;2023-06-22T07:53:40;100505.69;;;28.71;37.83
80837;BME280;70251;60.008;30.404;2023-06-22T07:56:06;100498.34;;;28.76;38.33
80837;BME280;70251;60.008;30.404;2023-06-22T07:58:34;100495.13;;;28.84;38.06
80837;BME280;70251;60.008;30.404;2023-06-22T08:01:00;100487.78;;;28.90;37.72
80837;BME280;70251;60.008;30.404;2023-06-22T08:03:26;100485.66;;;28.97;37.57
80837;BME280;70251;60.008;30.404;2023-06-22T08:05:51;100481.59;;;29.04;37.75
80837;BME280;70251;60.008;30.404;2023-06-22T08:08:17;100475.94;;;29.16;37.82
80837;BME280;70251;60.008;30.404;2023-06-22T08:10:42;100473.88;;;29.28;37.59
80837;BME280;70251;60.008;30.404;2023-06-22T08:13:08;100477.25;;;29.40;37.26
80837;BME280;70251;60.008;30.404;2023-06-22T08:15:34;100479.78;;;29.47;36.51
80837;BME280;70251;60.008;30.404;2023-06-22T08:18:00;100473.56;;;29.61;36.32
80837;BME280;70251;60.008;30.404;2023-06-22T08:20:26;100467.84;;;29.73;36.09
80837;BME280;70251;60.008;30.404;2023-06-22T08:22:53;100468.50;;;29.85;36.22
80837;BME280;70251;60.008;30.404;2023-06-22T08:25:19;100472.13;;;29.96;35.91
80837;BME280;70251;60.008;30.404;2023-06-22T08:27:46;100468.25;;;29.97;36.13
80837;BME280;70251;60.008;30.404;2023-06-22T08:30:16;100463.09;;;30.10;35.94
80837;BME280;70251;60.008;30.404;2023-06-22T08:32:43;100457.66;;;30.25;36.03
80837;BME280;70251;60.008;30.404;2023-06-22T08:35:10;100450.31;;;30.41;35.79
80837;BME280;70251;60.008;30.404;2023-06-22T08:37:36;100453.38;;;30.49;35.12
80837;BME280;70251;60.008;30.404;2023-06-22T08:40:06;100453.66;;;30.53;35.31
80837;BME280;70251;60.008;30.404;2023-06-22T08:42:40;100444.84;;;30.71;35.36
80837;BME280;70251;60.008;30.404;2023-06-22T08:45:07;100436.59;;;30.71;35.46
80837;BME280;70251;60.008;30.404;2023-06-22T08:47:34;100447.91;;;30.80;35.36
80837;BME280;70251;60.008;30.404;2023-06-22T08:50:00;100446.56;;;30.97;35.33
80837;BME280;70251;60.008;30.404;2023-06-22T08:52:31;100441.63;;;31.14;34.69
80837;BME280;70251;60.008;30.404;2023-06-22T08:54:57;100436.09;;;31.19;34.48
80837;BME280;70251;60.008;30.404;2023-06-22T08:57:27;100432.81;;;31.17;34.43
80837;BME280;70251;60.008;30.404;2023-06-22T08:59:53;100428.94;;;31.23;33.92
80837;BME280;70251;60.008;30.404;2023-06-22T09:02:19;100426.69;;;31.35;33.83
80837;BME280;70251;60.008;30.404;2023-06-22T09:04:51;100429.47;;;31.51;33.48
80837;BME280;70251;60.008;30.404;2023-06-22T09:07:24;100421.44;;;31.59;33.53
80837;BME280;70251;60.008;30.404;2023-06-22T09:09:51;100423.06;;;31.70;33.26
80837;BME280;70251;60.008;30.404;2023-06-22T09:12:18;100415.88;;;31.79;33.36
80837;BME280;70251;60.008;30.404;2023-06-22T09:14:46;100416.13;;;31.78;33.36
80837;BME280;70251;60.008;30.404;2023-06-22T09:17:13;100417.28;;;31.72;33.17
80837;BME280;70251;60.008;30.404;2023-06-22T09:19:38;100416.97;;;31.78;33.40
80837;BME280;70251;60.008;30.404;2023-06-22T09:22:07;100418.84;;;31.93;33.33
80837;BME280;70251;60.008;30.404;2023-06-22T09:24:33;100406.94;;;32.07;33.08
80837;BME280;70251;60.008;30.404;2023-06-22T09:26:58;100417.19;;;32.02;33.26
80837;BME280;70251;60.008;30.404;2023-06-22T09:29:24;100415.56;;;31.96;33.41
80837;BME280;70251;60.008;30.404;2023-06-22T09:31:50;100410.59;;;31.98;32.99
80837;BME280;70251;60.008;30.404;2023-06-22T09:34:16;100409.47;;;31.99;32.75
80837;BME280;70251;60.008;30.404;2023-06-22T09:36:48;100414.72;;;32.00;32.63
80837;BME280;70251;60.008;30.404;2023-06-22T09:39:13;100407.81;;;32.03;32.89
80837;BME280;70251;60.008;30.404;2023-06-22T09:41:39;100402.22;;;32.13;32.96
80837;BME280;70251;60.008;30.404;2023-06-22T09:44:05;100402.41;;;32.27;32.71
80837;BME280;70251;60.008;30.404;2023-06-22T09:46:30;100398.75;;;32.41;33.02
80837;BME280;70251;60.008;30.404;2023-06-22T09:48:56;100382.38;;;32.55;32.67
80837;BME280;70251;60.008;30.404;2023-06-22T09:51:22;100384.47;;;32.73;32.85
80837;BME280;70251;60.008;30.404;2023-06-22T09:53:49;100386.84;;;32.84;32.31
80837;BME280;70251;60.008;30.404;2023-06-22T09:56:16;100380.28;;;32.75;32.00
80837;BME280;70251;60.008;30.404;2023-06-22T09:58:45;100373.69;;;32.71;32.37
80837;BME280;70251;60.008;30.404;2023-06-22T10:01:12;100377.06;;;32.63;32.22
80837;BME280;70251;60.008;30.404;2023-06-22T10:03:41;100370.38;;;32.69;32.08
80837;BME280;70251;60.008;30.404;2023-06-22T10:06:09;100374.16;;;32.83;32.18
80837;BME280;70251;60.008;30.404;2023-06-22T10:08:35;100372.16;;;32.89;32.03
80837;BME280;70251;60.008;30.404;2023-06-22T10:11:03;100372.63;;;33.01;32.07
80837;BME280;70251;60.008;30.404;2023-06-22T10:13:29;100370.13;;;33.05;32.46
80837;BME280;70251;60.008;30.404;2023-06-22T10:15:55;100366.34;;;33.24;31.78
80837;BME280;70251;60.008;30.404;2023-06-22T10:18:20;100352.50;;;33.48;32.05
80837;BME280;70251;60.008;30.404;2023-06-22T10:20:50;100348.81;;;33.57;31.72
80837;BME280;70251;60.008;30.404;2023-06-22T10:23:17;100348.63;;;33.49;31.98
80837;BME280;70251;60.008;30.404;2023-06-22T10:25:43;100346.38;;;33.56;32.01
80837;BME280;70251;60.008;30.404;2023-06-22T10:28:10;100337.69;;;33.63;31.84
80837;BME280;70251;60.008;30.404;2023-06-22T10:30:36;100327.78;;;33.56;31.37
80837;BME280;70251;60.008;30.404;2023-06-22T10:33:05;100321.66;;;33.36;32.01
80837;BME280;70251;60.008;30.404;2023-06-22T10:35:32;100327.22;;;33.31;31.72
80837;BME280;70251;60.008;30.404;2023-06-22T10:37:57;100320.53;;;33.13;31.95
80837;BME280;70251;60.008;30.404;2023-06-22T10:40:23;100321.81;;;32.92;31.84
80837;BME280;70251;60.008;30.404;2023-06-22T10:42:48;100314.00;;;32.70;32.01
80837;BME280;70251;60.008;30.404;2023-06-22T10:45:15;100313.34;;;32.50;32.63
80837;BME280;70251;60.008;30.404;2023-06-22T10:47:41;100317.53;;;32.37;33.10
80837;BME280;70251;60.008;30.404;2023-06-22T10:50:09;100311.38;;;32.11;32.97
80837;BME280;70251;60.008;30.404;2023-06-22T10:52:35;100315.63;;;31.84;33.27
80837;BME280;70251;60.008;30.404;2023-06-22T10:55:01;100307.72;;;31.72;33.60
80837;BME280;70251;60.008;30.404;2023-06-22T10:57:30;100309.91;;;31.75;33.47
80837;BME280;70251;60.008;30.404;2023-06-22T10:59:55;100317.38;;;31.70;33.49
80837;BME280;70251;60.008;30.404;2023-06-22T11:02:21;100343.16;;;31.40;33.28
80837;BME280;70251;60.008;30.404;2023-06-22T11:04:47;100329.16;;;31.11;33.82
80837;BME280;70251;60.008;30.404;2023-06-22T11:07:13;100369.41;;;31.02;33.72
80837;BME280;70251;60.008;30.404;2023-06-22T11:09:39;100336.50;;;30.20;33.52
80837;BME280;70251;60.008;30.404;2023-06-22T11:12:05;100341.84;;;29.70;35.24
80837;BME280;70251;60.008;30.404;2023-06-22T11:14:31;100327.91;;;29.35;38.05
80837;BME280;70251;60.008;30.404;2023-06-22T11:16:59;100329.13;;;29.12;39.15
80837;BME280;70251;60.008;30.404;2023-06-22T11:19:24;100320.78;;;28.92;40.18
80837;BME280;70251;60.008;30.404;2023-06-22T11:21:50;100308.88;;;28.81;41.10
80837;BME280;70251;60.008;30.404;2023-06-22T11:24:17;100305.31;;;28.81;41.83
80837;BME280;70251;60.008;30.404;2023-06-22T11:26:43;100310.03;;;28.90;42.36
80837;BME280;70251;60.008;30.404;2023-06-22T11:29:09;100309.59;;;29.08;42.62
80837;BME280;70251;60.008;30.404;2023-06-22T11:31:35;100317.69;;;29.25;42.62
80837;BME280;70251;60.008;30.404;2023-06-22T11:34:01;100309.50;;;29.35;42.15
80837;BME280;70251;60.008;30.404;2023-06-22T11:36:27;100312.81;;;29.37;42.29
80837;BME280;70251;60.008;30.404;2023-06-22T11:38:54;100308.94;;;29.28;42.53
80837;BME280;70251;60.008;30.404;2023-06-22T11:41:22;100311.66;;;29.23;42.90
80837;BME280;70251;60.008;30.404;2023-06-22T11:43:48;100306.88;;;29.13;43.58
80837;BME280;70251;60.008;30.404;2023-06-22T11:46:14;100301.81;;;28.95;44.01
80837;BME280;70251;60.008;30.404;2023-06-22T11:48:39;100296.50;;;28.84;44.49
80837;BME280;70251;60.008;30.404;2023-06-22T11:51:05;100296.19;;;28.75;44.34
80837;BME280;70251;60.008;30.404;2023-06-22T11:53:31;100294.22;;;28.71;44.64
80837;BME280;70251;60.008;30.404;2023-06-22T11:55:57;100293.97;;;28.72;44.46
80837;BME280;70251;60.008;30.404;2023-06-22T11:58:23;100287.72;;;28.82;44.10
80837;BME280;70251;60.008;30.404;2023-06-22T12:00:49;100278.69;;;28.86;43.38
80837;BME280;70251;60.008;30.404;2023-06-22T12:03:15;100278.41;;;28.83;42.78
80837;BME280;70251;60.008;30.404;2023-06-22T12:05:42;100282.75;;;28.79;43.28
80837;BME280;70251;60.008;30.404;2023-06-22T12:08:07;100281.09;;;28.78;42.99
80837;BME280;70251;60.008;30.404;2023-06-22T12:10:33;100278.06;;;28.79;43.00
80837;BME280;70251;60.008;30.404;2023-06-22T12:12:59;100274.03;;;28.87;42.68
80837;BME280;70251;60.008;30.404;2023-06-22T12:15:26;100273.47;;;28.85;42.59
80837;BME280;70251;60.008;30.404;2023-06-22T12:17:52;100278.34;;;28.78;42.06
80837;BME280;70251;60.008;30.404;2023-06-22T12:20:21;100271.78;;;28.79;42.37
80837;BME280;70251;60.008;30.404;2023-06-22T12:22:46;100264.66;;;28.88;42.45
80837;BME280;70251;60.008;30.404;2023-06-22T12:25:12;100266.06;;;28.90;42.65
80837;BME280;70251;60.008;30.404;2023-06-22T12:27:38;100264.19;;;28.96;42.63
80837;BME280;70251;60.008;30.404;2023-06-22T12:30:04;100260.91;;;28.99;43.00
80837;BME280;70251;60.008;30.404;2023-06-22T12:32:32;100258.22;;;29.09;43.24
80837;BME280;70251;60.008;30.404;2023-06-22T12:34:58;100252.75;;;29.14;42.84
80837;BME280;70251;60.008;30.404;2023-06-22T12:37:23;100255.50;;;29.14;42.94
80837;BME280;70251;60.008;30.404;2023-06-22T12:39:49;100253.31;;;29.16;42.62
80837;BME280;70251;60.008;30.404;2023-06-22T12:42:15;100253.66;;;29.25;41.92
80837;BME280;70251;60.008;30.404;2023-06-22T12:44:41;100255.34;;;29.36;41.94
80837;BME280;70251;60.008;30.404;2023-06-22T12:47:08;100252.06;;;29.39;42.01
80837;BME280;70251;60.008;30.404;2023-06-22T12:49:36;100253.69;;;29.35;42.03